Time;durP1;ratioP1;P1;durP2;ratioP2;P2;SDS_P1;SDS_P2;PMS_P1;PMS_P2;Temp;Humidity;BMP_temperature;BMP_pressure;BME280_temperature;BME280_humidity;BME280_pressure;Samples;Min_cycle;Max_cycle;Signal;HPM_P1;HPM_P2
2023/05/13 05:00:10;;;;;;;;;61.50;51.00;;;;;16.19;74.34;101695.72;6150770;22;46547;-57
2023/05/13 05:02:35;;;;;;;;;59.75;48.75;;;;;16.19;75.55;101701.09;6243943;22;45273;-58
2023/05/13 05:05:01;;;;;;;;;62.00;48.25;;;;;16.18;75.27;101702.09;6245018;22;68898;-58
2023/05/13 05:07:26;;;;;;;;;63.25;50.25;;;;;16.19;74.81;101709.16;6246545;22;45337;-58
2023/05/13 05:09:51;;;;;;;;;61.75;49.75;;;;;16.21;74.22;101700.06;6244144;22;70897;-58
2023/05/13 05:12:17;;;;;;;;;61.25;49.75;;;;;16.23;74.38;101704.47;6245549;22;60691;-58
2023/05/13 05:14:43;;;;;;;;;58.50;46.25;;;;;16.27;74.18;101709.59;6244362;22;70277;-58
2023/05/13 05:17:09;;;;;;;;;60.25;49.00;;;;;16.29;74.47;101713.03;6245793;22;45222;-58
2023/05/13 05:19:34;;;;;;;;;56.50;46.50;;;;;16.33;74.21;101719.06;6244077;22;69319;-58
2023/05/13 05:22:00;;;;;;;;;58.50;48.00;;;;;16.40;73.64;101722.25;6246224;22;45957;-58
2023/05/13 05:24:25;;;;;;;;;58.75;47.25;;;;;16.53;73.77;101723.22;6244467;22;71794;-58
2023/05/13 05:26:50;;;;;;;;;60.50;49.50;;;;;16.68;73.03;101722.31;6245617;22;45302;-58
2023/05/13 05:29:16;;;;;;;;;55.75;46.25;;;;;16.79;72.36;101735.09;6246806;22;45175;-58
2023/05/13 05:31:41;;;;;;;;;60.75;48.50;;;;;16.83;72.05;101739.31;6244159;22;75790;-58
2023/05/13 05:34:07;;;;;;;;;61.00;48.00;;;;;16.86;71.82;101738.25;6246172;22;45288;-59
2023/05/13 05:36:32;;;;;;;;;57.50;45.75;;;;;16.89;71.79;101748.81;6245366;22;51764;-58
2023/05/13 05:38:57;;;;;;;;;56.75;44.50;;;;;16.93;71.66;101744.16;6245579;22;45375;-58
2023/05/13 05:41:23;;;;;;;;;54.50;43.25;;;;;16.97;71.23;101751.06;6217542;22;71805;-58
2023/05/13 05:43:48;;;;;;;;;60.25;46.75;;;;;16.96;71.16;101746.63;6217728;22;49970;-58
2023/05/13 05:46:15;;;;;;;;;55.33;44.00;;;;;16.92;70.63;101748.66;6245027;22;45262;-58
2023/05/13 05:48:40;;;;;;;;;56.75;46.25;;;;;16.89;70.99;101748.81;6245501;22;45464;-58
2023/05/13 05:51:05;;;;;;;;;54.67;42.67;;;;;16.86;70.73;101757.91;6218540;22;76926;-58
2023/05/13 05:53:32;;;;;;;;;53.00;44.00;;;;;16.86;70.76;101765.97;6247057;22;45220;-58
2023/05/13 05:55:57;;;;;;;;;56.00;45.50;;;;;16.87;70.50;101756.13;6246443;22;45267;-58
2023/05/13 05:58:22;;;;;;;;;58.75;45.25;;;;;16.98;70.21;101766.22;6246107;22;62812;-58
2023/05/13 06:00:48;;;;;;;;;59.00;47.00;;;;;17.10;70.01;101761.91;6245905;22;45805;-58
2023/05/13 06:03:13;;;;;;;;;54.33;44.67;;;;;17.22;69.98;101766.50;6218774;22;71861;-58
2023/05/13 06:05:38;;;;;;;;;57.25;46.50;;;;;17.40;69.51;101769.00;6219120;22;56568;-58
2023/05/13 06:08:04;;;;;;;;;53.33;42.67;;;;;17.56;69.11;101768.88;6218933;22;45159;-58
2023/05/13 06:10:29;;;;;;;;;56.33;45.67;;;;;17.78;68.63;101776.41;6247303;22;45955;-58
2023/05/13 06:12:55;;;;;;;;;55.33;45.00;;;;;17.92;68.49;101767.44;6245398;22;72127;-58
2023/05/13 06:15:20;;;;;;;;;54.75;46.00;;;;;18.09;67.94;101777.13;6246124;22;45281;-58
2023/05/13 06:17:46;;;;;;;;;56.00;42.33;;;;;18.45;67.48;101767.56;6245485;22;45157;-58
2023/05/13 06:20:11;;;;;;;;;54.50;44.50;;;;;18.71;65.88;101781.03;6247078;22;45179;-58
2023/05/13 06:22:36;;;;;;;;;57.00;45.25;;;;;18.78;64.64;101768.88;6246383;22;45221;-58
2023/05/13 06:25:02;;;;;;;;;58.50;47.75;;;;;18.74;64.46;101772.75;6245523;22;67885;-58
2023/05/13 06:27:27;;;;;;;;;57.67;47.33;;;;;18.73;63.71;101779.13;6246781;22;45335;-58
2023/05/13 06:29:53;;;;;;;;;50.33;42.00;;;;;18.90;64.44;101778.81;6245889;22;47132;-58
2023/05/13 06:32:18;;;;;;;;;54.67;44.33;;;;;19.55;64.35;101789.56;6246452;22;45204;-58
2023/05/13 06:34:46;;;;;;;;;52.00;42.67;;;;;20.80;62.40;101786.50;6245608;22;66188;-59
2023/05/13 06:37:12;;;;;;;;;47.00;40.00;;;;;21.80;56.68;101791.22;6245922;22;45370;-58
2023/05/13 06:39:38;;;;;;;;;49.67;41.00;;;;;22.77;58.68;101793.06;6246146;22;47056;-58
2023/05/13 06:42:03;;;;;;;;;46.67;38.00;;;;;23.90;54.65;101790.47;6246771;22;45101;-58
2023/05/13 06:44:29;;;;;;;;;50.00;43.00;;;;;24.00;50.91;101788.63;6246647;22;45259;-58
2023/05/13 06:46:55;;;;;;;;;46.67;39.67;;;;;24.19;54.17;101797.78;6246403;22;45548;-57
2023/05/13 06:49:20;;;;;;;;;48.33;39.67;;;;;24.22;51.21;101800.19;6246074;22;46818;-57
2023/05/13 06:51:47;;;;;;;;;46.67;38.67;;;;;24.20;51.89;101811.22;6244479;22;45435;-59
2023/05/13 06:54:12;;;;;;;;;50.00;37.67;;;;;24.44;46.76;101805.38;6246312;22;45317;-57
2023/05/13 06:56:37;;;;;;;;;46.67;38.67;;;;;25.06;48.76;101805.00;6246142;22;45588;-57
2023/05/13 06:59:03;;;;;;;;;49.67;41.67;;;;;25.72;44.62;101808.63;6244935;22;71992;-57
2023/05/13 07:01:28;;;;;;;;;49.33;41.33;;;;;26.04;40.93;101811.88;6245035;22;64191;-57
2023/05/13 07:03:53;;;;;;;;;51.00;43.33;;;;;26.16;44.79;101804.34;6246114;22;51635;-57
2023/05/13 07:06:18;;;;;;;;;51.33;41.67;;;;;25.60;43.53;101807.09;6218666;22;64561;-57
2023/05/13 07:08:44;;;;;;;;;51.67;41.00;;;;;25.01;42.76;101803.72;6245330;22;71207;-57
2023/05/13 07:11:09;;;;;;;;;50.33;42.00;;;;;24.50;44.88;101812.09;6246247;22;45256;-57
2023/05/13 07:13:35;;;;;;;;;49.67;41.33;;;;;23.79;45.75;101811.28;6245418;22;60324;-57
2023/05/13 07:16:01;;;;;;;;;51.33;42.33;;;;;23.40;45.86;101813.00;6246493;22;47780;-57
2023/05/13 07:18:27;;;;;;;;;49.67;41.67;;;;;22.89;47.08;101804.72;6247115;22;45239;-57
2023/05/13 07:20:52;;;;;;;;;55.33;42.67;;;;;22.61;47.88;101809.81;6246683;22;45235;-58
2023/05/13 07:23:17;;;;;;;;;50.00;41.33;;;;;22.54;48.20;101814.03;6218785;22;68701;-58
2023/05/13 07:25:43;;;;;;;;;53.67;44.67;;;;;22.59;48.47;101816.34;6246350;22;45148;-59
2023/05/13 07:28:08;;;;;;;;;57.33;45.00;;;;;22.53;48.47;101811.44;6246741;22;45238;-57
2023/05/13 07:30:34;;;;;;;;;50.67;42.33;;;;;22.54;49.23;101818.59;6243704;22;45293;-59
2023/05/13 07:32:59;;;;;;;;;50.67;42.33;;;;;22.71;48.68;101811.72;6218050;22;45307;-59
2023/05/13 07:35:24;;;;;;;;;54.00;44.33;;;;;22.65;48.63;101815.81;6246908;22;45233;-59
2023/05/13 07:37:50;;;;;;;;;47.67;40.00;;;;;22.63;49.08;101815.97;6246021;22;52749;-59
2023/05/13 07:40:16;;;;;;;;;51.33;41.67;;;;;22.74;48.71;101820.44;6246020;22;67604;-59
2023/05/13 07:42:42;;;;;;;;;49.33;41.33;;;;;22.80;48.91;101817.22;6245183;22;45290;-59
2023/05/13 07:45:07;;;;;;;;;53.33;43.00;;;;;22.97;48.60;101817.59;6219323;22;45256;-59
2023/05/13 07:47:33;;;;;;;;;52.33;44.33;;;;;22.89;47.83;101818.28;6246534;22;47501;-59
2023/05/13 07:49:58;;;;;;;;;56.67;44.00;;;;;22.77;48.27;101820.19;6246219;22;45260;-59
2023/05/13 07:52:24;;;;;;;;;52.00;41.67;;;;;22.76;48.45;101828.44;6245634;22;64247;-59
2023/05/13 07:54:50;;;;;;;;;50.00;41.00;;;;;22.73;48.84;101835.00;6219470;22;45288;-59
2023/05/13 07:57:15;;;;;;;;;54.67;43.00;;;;;22.59;48.51;101835.31;6245815;22;59160;-59
2023/05/13 07:59:40;;;;;;;;;50.67;42.00;;;;;22.27;48.46;101837.03;6246232;22;48156;-59
2023/05/13 08:02:06;;;;;;;;;52.67;43.33;;;;;22.04;49.00;101840.78;6245104;22;66815;-59
2023/05/13 08:04:32;;;;;;;;;52.33;42.67;;;;;21.98;49.29;101848.44;6247074;22;45307;-59
2023/05/13 08:06:57;;;;;;;;;51.67;44.00;;;;;22.06;49.26;101846.91;6246086;22;45752;-59
2023/05/13 08:09:23;;;;;;;;;54.00;40.67;;;;;21.89;49.69;101845.59;6246503;22;45283;-59
2023/05/13 08:11:49;;;;;;;;;57.67;46.00;;;;;21.87;49.71;101843.03;6246201;22;45215;-59
2023/05/13 08:14:14;;;;;;;;;60.00;44.00;;;;;21.94;49.53;101840.66;6219757;22;45241;-59
2023/05/13 08:16:39;;;;;;;;;55.67;45.00;;;;;22.21;49.85;101840.22;6243519;22;59718;-59
2023/05/13 08:19:05;;;;;;;;;51.00;41.33;;;;;22.72;48.02;101843.28;6244804;22;45177;-59
2023/05/13 08:21:31;;;;;;;;;55.67;46.33;;;;;22.68;48.18;101841.81;6246317;22;62363;-59
2023/05/13 08:23:56;;;;;;;;;58.33;45.67;;;;;22.65;48.78;101836.66;6245102;22;45241;-58
2023/05/13 08:26:22;;;;;;;;;56.00;45.67;;;;;22.47;47.93;101842.66;6246609;22;48086;-59
2023/05/13 08:28:48;;;;;;;;;54.00;43.33;;;;;22.20;49.17;101840.38;6245366;22;45337;-59
2023/05/13 08:31:13;;;;;;;;;56.67;45.33;;;;;21.99;49.77;101846.56;6245932;22;45240;-59
2023/05/13 08:33:40;;;;;;;;;55.00;45.00;;;;;21.85;49.42;101850.44;6244923;22;69455;-59
2023/05/13 08:36:06;;;;;;;;;59.67;44.67;;;;;21.64;49.55;101853.88;6246591;22;46241;-58
2023/05/13 08:38:32;;;;;;;;;59.00;46.33;;;;;21.62;50.10;101850.44;6246541;22;45301;-59
2023/05/13 08:40:58;;;;;;;;;57.00;43.67;;;;;21.73;50.51;101857.72;6246598;22;45171;-59
2023/05/13 08:43:26;;;;;;;;;54.67;45.33;;;;;21.76;50.24;101848.47;6245632;22;45437;-57
2023/05/13 08:45:53;;;;;;;;;58.00;43.33;;;;;21.79;50.57;101842.81;6245404;22;45286;-58
2023/05/13 08:48:19;;;;;;;;;57.33;45.00;;;;;21.58;49.85;101845.41;6219346;22;45296;-58
2023/05/13 08:50:45;;;;;;;;;57.33;46.33;;;;;21.19;50.49;101856.53;6246495;22;45240;-59
2023/05/13 08:53:11;;;;;;;;;62.33;46.00;;;;;20.91;51.45;101850.59;6219852;22;45482;-59
2023/05/13 08:55:40;;;;;;;;;55.00;45.00;;;;;20.81;52.10;101854.97;6244573;22;46090;-58
2023/05/13 08:58:05;;;;;;;;;54.33;44.00;;;;;20.90;51.96;101850.69;6246037;22;45252;-59
2023/05/13 09:00:33;;;;;;;;;58.00;44.00;;;;;20.94;51.98;101850.34;6244384;22;45271;-59
2023/05/13 09:02:58;;;;;;;;;56.33;45.00;;;;;20.88;51.42;101845.41;6219249;22;45308;-58
2023/05/13 09:05:24;;;;;;;;;55.25;44.25;;;;;20.81;51.65;101841.47;6246465;22;45231;-59
2023/05/13 09:07:49;;;;;;;;;52.00;43.00;;;;;20.92;52.10;101846.03;6245508;22;45216;-59
2023/05/13 09:10:16;;;;;;;;;58.00;45.00;;;;;21.17;52.23;101842.25;6245748;22;60954;-59
2023/05/13 09:12:50;;;;;;;;;55.00;45.67;;;;;21.27;51.07;101847.81;6245415;22;45283;-59
2023/05/13 09:15:18;;;;;;;;;58.67;46.33;;;;;21.89;50.72;101843.78;6245304;22;46274;-59
2023/05/13 09:17:44;;;;;;;;;54.33;44.33;;;;;23.13;49.71;101836.13;6245352;22;45326;-59
2023/05/13 09:20:12;;;;;;;;;57.67;46.33;;;;;25.10;47.05;101833.63;6218976;22;45447;-59
2023/05/13 09:22:44;;;;;;;;;57.00;43.67;;;;;27.19;44.31;101826.47;6218119;22;45222;-58
2023/05/13 09:25:13;;;;;;;;;45.33;38.67;;;;;28.88;37.67;101833.78;6245419;22;46010;-58
2023/05/13 09:27:45;;;;;;;;;52.33;43.33;;;;;30.72;35.48;101839.09;6218414;22;45283;-58
2023/05/13 09:30:11;;;;;;;;;56.00;44.67;;;;;32.40;37.50;101842.22;6219099;22;45286;-58
2023/05/13 09:32:38;;;;;;;;;53.67;43.33;;;;;33.48;33.64;101846.66;6218746;22;45467;-59
2023/05/13 09:35:10;;;;;;;;;53.33;41.67;;;;;33.05;34.41;101853.16;6246219;22;45985;-58
2023/05/13 09:37:35;;;;;;;;;55.00;44.67;;;;;31.80;32.85;101850.63;6245359;22;45260;-58
2023/05/13 09:40:01;;;;;;;;;59.67;45.00;;;;;29.98;35.50;101856.06;6245649;22;45208;-59
2023/05/13 09:42:26;;;;;;;;;49.33;40.00;;;;;28.82;35.33;101856.34;6246182;22;45190;-58
2023/05/13 09:44:52;;;;;;;;;57.33;44.33;;;;;28.44;35.96;101856.00;6243163;22;76692;-58
2023/05/13 09:47:17;;;;;;;;;54.33;43.00;;;;;29.19;35.92;101845.84;6244837;22;70656;-58
2023/05/13 09:49:44;;;;;;;;;51.33;40.67;;;;;31.27;34.45;101852.63;6245717;22;45792;-58
2023/05/13 09:52:10;;;;;;;;;49.00;41.67;;;;;32.93;30.26;101855.63;6244577;22;45504;-58
2023/05/13 09:54:36;;;;;;;;;50.00;41.33;;;;;32.41;30.36;101852.19;6243360;22;45366;-58
2023/05/13 09:57:03;;;;;;;;;52.00;41.67;;;;;31.84;31.72;101851.94;6246102;22;45247;-58
2023/05/13 09:59:34;;;;;;;;;52.67;41.00;;;;;32.60;32.22;101842.38;6245551;22;45202;-58
2023/05/13 10:02:03;;;;;;;;;53.67;42.00;;;;;33.64;31.87;101843.53;6245477;22;45620;-59
2023/05/13 10:04:29;;;;;;;;;50.67;40.67;;;;;33.80;28.89;101845.09;6245645;22;45307;-58
2023/05/13 10:06:57;;;;;;;;;53.33;42.00;;;;;32.54;29.41;101850.56;6244776;22;45168;-59
2023/05/13 10:09:23;;;;;;;;;51.33;40.33;;;;;31.50;30.20;101841.56;6245467;22;45343;-58
2023/05/13 10:11:48;;;;;;;;;50.00;40.33;;;;;31.71;31.90;101846.28;6217775;22;45369;-60
2023/05/13 10:14:15;;;;;;;;;45.00;37.33;;;;;32.10;31.39;101844.22;6218726;22;45260;-58
2023/05/13 10:16:41;;;;;;;;;48.00;40.00;;;;;32.82;31.24;101836.88;6244816;22;45313;-59
2023/05/13 10:19:07;;;;;;;;;48.00;38.00;;;;;35.36;28.56;101844.16;6245358;22;45561;-59
2023/05/13 10:21:35;;;;;;;;;43.33;36.33;;;;;37.35;27.79;101836.63;6246333;22;45429;-61
2023/05/13 10:24:01;;;;;;;;;47.67;38.67;;;;;39.52;26.39;101837.44;6243567;22;45309;-58
2023/05/13 10:26:26;;;;;;;;;48.67;38.67;;;;;39.91;24.61;101834.03;6244492;22;67003;-58
2023/05/13 10:28:53;;;;;;;;;48.00;39.67;;;;;39.48;24.22;101836.25;6217055;22;62772;-58
2023/05/13 10:31:19;;;;;;;;;46.00;38.67;;;;;38.83;24.05;101833.41;6217182;22;68549;-58
2023/05/13 10:33:44;;;;;;;;;41.00;36.00;;;;;38.13;24.72;101823.00;6245163;22;45497;-58
2023/05/13 10:36:47;;;;;;;;;45.00;35.33;;;;;37.11;24.39;101822.56;6246388;22;45208;-58
2023/05/13 10:39:42;;;;;;;;;45.00;36.67;;;;;36.10;25.38;101814.22;6219943;22;45354;-59
2023/05/13 10:42:32;;;;;;;;;46.00;35.33;;;;;35.81;24.61;101812.91;6247027;22;45277;-59
2023/05/13 10:44:57;;;;;;;;;46.67;39.33;;;;;35.71;25.85;101816.13;6219395;22;45324;-59
2023/05/13 10:47:23;;;;;;;;;47.00;38.00;;;;;38.03;26.04;101815.22;6247013;22;45225;-61
2023/05/13 10:49:52;;;;;;;;;48.67;38.67;;;;;40.91;23.55;101806.44;6219722;22;45401;-59
2023/05/13 10:52:17;;;;;;;;;45.33;38.00;;;;;43.18;22.52;101814.25;6247415;22;45278;-59
2023/05/13 10:54:58;;;;;;;;;45.33;38.00;;;;;44.95;20.87;101805.75;6246298;22;45382;-60
2023/05/13 10:57:28;;;;;;;;;43.67;38.00;;;;;46.18;19.08;101807.03;6246977;22;45316;-59
2023/05/13 11:00:15;;;;;;;;;45.67;37.00;;;;;47.33;18.35;101797.06;6245847;22;45215;-60
2023/05/13 11:02:41;;;;;;;;;45.00;36.00;;;;;48.14;17.48;101801.75;6219440;22;45303;-60
2023/05/13 11:05:07;;;;;;;;;45.67;38.00;;;;;48.62;17.44;101795.00;6193946;22;46307;-60
2023/05/13 11:07:37;;;;;;;;;41.67;35.33;;;;;49.25;14.66;101795.38;6246852;22;45245;-60
2023/05/13 11:10:04;;;;;;;;;44.00;37.67;;;;;47.86;14.74;101795.19;6246163;22;45332;-60
2023/05/13 11:12:29;;;;;;;;;42.67;36.33;;;;;46.92;16.12;101788.31;6245849;22;45314;-60
2023/05/13 11:14:55;;;;;;;;;49.67;39.67;;;;;46.22;16.29;101791.25;6244933;22;45802;-50
2023/05/13 11:17:20;;;;;;;;;43.00;35.00;;;;;45.80;16.72;101789.88;6246039;22;45407;-53
2023/05/13 11:19:48;;;;;;;;;41.00;35.67;;;;;46.06;16.68;101793.38;6245054;22;64782;-53
2023/05/13 11:22:21;;;;;;;;;41.33;34.33;;;;;46.66;16.83;101788.56;6246842;22;45227;-55
2023/05/13 11:25:04;;;;;;;;;44.67;36.00;;;;;45.07;16.91;101782.97;6245514;22;46074;-56
2023/05/13 11:27:32;;;;;;;;;39.67;34.00;;;;;43.40;17.08;101786.06;6219183;22;45425;-56
2023/05/13 11:29:57;;;;;;;;;44.33;37.33;;;;;41.98;18.77;101777.34;6246336;22;45243;-58
2023/05/13 11:32:47;;;;;;;;;44.00;37.33;;;;;43.01;18.73;101782.84;6246178;22;62330;-52
2023/05/13 11:35:18;;;;;;;;;43.00;36.00;;;;;44.35;17.70;101775.59;6246709;22;46078;-54
2023/05/13 11:37:44;;;;;;;;;42.67;36.67;;;;;45.13;16.66;101770.63;6246540;22;45196;-53
2023/05/13 11:40:10;;;;;;;;;46.67;38.00;;;;;45.44;16.63;101770.47;6219734;22;49883;-55
2023/05/13 11:42:37;;;;;;;;;37.33;33.67;;;;;45.82;16.81;101765.16;6193789;22;45237;-54
2023/05/13 11:45:04;;;;;;;;;40.00;32.67;;;;;46.30;16.15;101755.22;6218872;22;46527;-55
2023/05/13 11:47:29;;;;;;;;;43.33;36.67;;;;;46.40;15.05;101753.16;6219595;22;45340;-55
2023/05/13 11:49:56;;;;;;;;;41.00;35.00;;;;;46.26;15.96;101748.50;6244701;22;45278;-54
2023/05/13 11:52:21;;;;;;;;;43.33;37.00;;;;;46.30;14.66;101739.22;6246950;22;45269;-54
2023/05/13 11:54:47;;;;;;;;;39.67;34.00;;;;;46.18;15.80;101739.59;6246437;22;45758;-55
2023/05/13 11:57:33;;;;;;;;;37.00;32.67;;;;;45.63;15.40;101736.09;6246944;22;45275;-53
2023/05/13 12:00:04;;;;;;;;;44.67;35.67;;;;;44.72;15.09;101735.16;6245027;22;45434;-52
2023/05/13 12:02:34;;;;;;;;;39.33;32.33;;;;;44.48;16.39;101722.88;6245951;22;45395;-52
2023/05/13 12:05:01;;;;;;;;;40.00;34.00;;;;;44.84;16.21;101728.38;6246339;22;45703;-52
2023/05/13 12:07:26;;;;;;;;;42.00;35.00;;;;;45.01;16.31;101719.59;6246464;22;45165;-52
2023/05/13 12:09:54;;;;;;;;;41.00;33.67;;;;;44.90;15.86;101719.66;6218378;22;64103;-53
2023/05/13 12:12:20;;;;;;;;;36.00;32.00;;;;;44.32;15.43;101710.84;6246584;22;45453;-51
2023/05/13 12:14:48;;;;;;;;;34.00;31.00;;;;;42.46;16.10;101710.41;6245705;22;46079;-49
2023/05/13 12:17:14;;;;;;;;;35.67;31.00;;;;;40.25;18.07;101712.41;6246393;22;45262;-52
2023/05/13 12:19:40;;;;;;;;;37.67;31.67;;;;;38.60;19.03;101709.19;6246119;22;45124;-52
2023/05/13 12:22:06;;;;;;;;;35.00;31.67;;;;;37.18;20.43;101708.81;6219499;22;45490;-56
2023/05/13 12:24:32;;;;;;;;;33.33;28.67;;;;;35.73;20.97;101706.97;6245888;22;45384;-51
2023/05/13 12:27:05;;;;;;;;;37.00;30.67;;;;;34.37;22.50;101701.28;6246308;22;45224;-50
2023/05/13 12:29:41;;;;;;;;;30.67;27.67;;;;;33.18;24.02;101691.69;6246653;22;45295;-51
2023/05/13 12:32:07;;;;;;;;;29.33;27.33;;;;;32.43;24.97;101701.44;6246732;22;45391;-50
2023/05/13 12:34:34;;;;;;;;;33.33;29.33;;;;;32.04;25.18;101697.28;6245736;22;46256;-49
2023/05/13 12:37:10;;;;;;;;;30.00;28.67;;;;;31.50;25.85;101693.97;6219208;22;45259;-50
2023/05/13 12:39:36;;;;;;;;;31.00;28.00;;;;;31.09;27.25;101699.19;6246630;22;45267;-49
2023/05/13 12:42:01;;;;;;;;;28.33;28.33;;;;;30.71;27.77;101682.81;6246845;22;45464;-51
2023/05/13 12:44:28;;;;;;;;;32.67;28.67;;;;;30.40;27.81;101687.38;6246316;22;61041;-51
2023/05/13 12:46:56;;;;;;;;;25.33;24.67;;;;;30.02;28.70;101695.63;6245683;22;45157;-52
2023/05/13 12:49:22;;;;;;;;;25.00;20.67;;;;;29.74;28.27;101690.66;6219132;22;45241;-50
2023/05/13 12:51:47;;;;;;;;;22.33;22.33;;;;;29.67;28.85;101692.41;6245754;22;45439;-52
2023/05/13 12:54:13;;;;;;;;;27.33;24.67;;;;;29.64;29.12;101695.53;6246491;22;45552;-50
2023/05/13 12:56:41;;;;;;;;;26.33;24.00;;;;;29.41;29.16;101682.63;6245593;22;57462;-51
2023/05/13 12:59:07;;;;;;;;;25.00;24.67;;;;;29.07;29.56;101689.28;6246325;22;45298;-48
2023/05/13 13:01:33;;;;;;;;;23.00;23.00;;;;;28.78;29.90;101678.97;6244865;22;45243;-52
2023/05/13 13:03:58;;;;;;;;;22.00;22.00;;;;;28.62;29.39;101679.88;6246010;22;45216;-52
2023/05/13 13:06:24;;;;;;;;;22.67;21.67;;;;;28.51;30.42;101667.38;6245393;22;72035;-53
2023/05/13 13:08:49;;;;;;;;;24.00;21.67;;;;;28.44;30.42;101671.88;6246406;22;45462;-49
2023/05/13 13:11:17;;;;;;;;;24.33;21.33;;;;;28.31;30.73;101675.13;6220065;22;45232;-53
2023/05/13 13:13:43;;;;;;;;;21.00;20.00;;;;;28.17;30.97;101674.81;6245180;22;46239;-53
2023/05/13 13:16:08;;;;;;;;;23.67;21.67;;;;;28.12;31.27;101669.00;6246176;22;45637;-52
2023/05/13 13:18:34;;;;;;;;;19.00;19.00;;;;;28.00;30.84;101668.47;6245627;22;65607;-52
2023/05/13 13:21:00;;;;;;;;;22.33;17.33;;;;;27.80;30.91;101667.94;6246085;22;45267;-53
2023/05/13 13:23:25;;;;;;;;;19.67;19.67;;;;;27.46;31.45;101666.19;6245440;22;63105;-52
2023/05/13 13:25:50;;;;;;;;;22.67;20.67;;;;;27.28;30.94;101673.63;6244502;22;67513;-52
2023/05/13 13:28:16;;;;;;;;;21.00;20.67;;;;;27.23;30.66;101677.72;6245449;22;59850;-50
2023/05/13 13:30:45;;;;;;;;;19.67;17.67;;;;;27.33;31.24;101663.91;6193027;22;45386;-50
2023/05/13 13:33:12;;;;;;;;;16.00;16.00;;;;;27.41;30.71;101660.38;6245836;22;46088;-53
2023/05/13 13:35:37;;;;;;;;;20.00;18.33;;;;;27.49;30.97;101662.25;6244994;22;45236;-53
2023/05/13 13:38:02;;;;;;;;;14.67;14.67;;;;;27.43;30.86;101660.19;6218264;22;56084;-49
2023/05/13 13:40:28;;;;;;;;;14.67;14.67;;;;;27.26;30.47;101654.69;6245843;22;45393;-50
2023/05/13 13:42:53;;;;;;;;;18.67;15.33;;;;;27.29;30.23;101672.59;6244167;22;75000;-48
2023/05/13 13:45:22;;;;;;;;;17.33;16.00;;;;;27.42;30.19;101653.00;6245467;22;45328;-48
2023/05/13 13:47:48;;;;;;;;;15.67;15.67;;;;;27.48;30.18;101649.63;6193748;22;45186;-51
2023/05/13 13:50:13;;;;;;;;;13.00;12.67;;;;;27.51;30.60;101639.22;6245920;22;45210;-52
2023/05/13 13:52:39;;;;;;;;;14.00;14.00;;;;;27.65;30.58;101645.91;6216997;22;74794;-57
2023/05/13 13:55:05;;;;;;;;;12.00;12.00;;;;;27.66;29.44;101646.75;6218692;22;45657;-50
2023/05/13 13:57:30;;;;;;;;;15.67;15.33;;;;;27.58;29.96;101644.00;6218990;22;45485;-50
2023/05/13 13:59:55;;;;;;;;;13.75;12.50;;;;;27.49;29.10;101649.44;6244645;22;45354;-50
2023/05/13 14:02:21;;;;;;;;;11.75;11.00;;;;;27.32;29.53;101651.25;6244277;22;75684;-53
2023/05/13 14:04:46;;;;;;;;;13.50;12.00;;;;;27.24;28.87;101641.16;6243546;22;45287;-51
2023/05/13 14:07:11;;;;;;;;;10.67;10.67;;;;;27.18;29.52;101638.25;6244916;22;65844;-52
2023/05/13 14:09:37;;;;;;;;;10.67;10.67;;;;;27.11;28.34;101646.25;6218006;22;55401;-51
2023/05/13 14:12:03;;;;;;;;;13.67;13.67;;;;;27.01;29.24;101640.06;6247428;22;45307;-51
2023/05/13 14:14:29;;;;;;;;;14.67;13.00;;;;;26.90;28.85;101625.69;6219324;22;45412;-50
2023/05/13 14:16:54;;;;;;;;;13.67;10.00;;;;;26.76;28.47;101634.50;6246678;22;45286;-50
2023/05/13 14:19:19;;;;;;;;;14.33;14.33;;;;;26.58;29.54;101626.38;6218670;22;66289;-51
2023/05/13 14:21:45;;;;;;;;;8.67;8.67;;;;;26.45;29.39;101621.34;6245797;22;61194;-52
2023/05/13 14:24:11;;;;;;;;;14.00;14.00;;;;;26.38;29.66;101620.31;6219651;22;45308;-49
2023/05/13 14:26:37;;;;;;;;;14.67;13.33;;;;;26.32;29.96;101610.03;6218890;22;45780;-51
2023/05/13 14:29:02;;;;;;;;;14.67;13.67;;;;;26.30;31.24;101604.75;6220528;22;45279;-50
2023/05/13 14:31:27;;;;;;;;;15.33;14.67;;;;;26.33;31.04;101617.22;6245660;22;71825;-52
2023/05/13 14:33:53;;;;;;;;;13.00;11.33;;;;;26.34;31.36;101605.28;6246091;22;54826;-51
2023/05/13 14:36:19;;;;;;;;;15.67;15.33;;;;;26.37;31.04;101603.09;6246032;22;66748;-49
2023/05/13 14:38:44;;;;;;;;;11.00;11.00;;;;;26.40;30.67;101601.94;6246522;22;45445;-51
2023/05/13 14:41:11;;;;;;;;;18.00;14.67;;;;;26.03;31.53;101600.28;6246336;22;64771;-49
2023/05/13 14:43:36;;;;;;;;;17.67;14.00;;;;;26.11;31.25;101603.09;6245980;22;45210;-51
2023/05/13 14:46:02;;;;;;;;;14.33;14.33;;;;;26.09;32.00;101613.31;6243922;22;58449;-60
2023/05/13 14:48:27;;;;;;;;;12.33;12.33;;;;;26.03;31.09;101611.19;6194520;22;45479;-50
2023/05/13 14:50:53;;;;;;;;;12.67;12.67;;;;;25.92;31.08;101610.44;6246080;22;46976;-50
2023/05/13 14:53:18;;;;;;;;;12.00;11.33;;;;;25.87;31.02;101599.16;6246778;22;45275;-50
2023/05/13 14:55:44;;;;;;;;;13.67;13.33;;;;;25.82;31.92;101595.19;6245431;22;67349;-48
2023/05/13 14:58:09;;;;;;;;;13.00;13.00;;;;;25.78;31.34;101602.81;6219208;22;45555;-50
2023/05/13 15:00:40;;;;;;;;;14.67;13.33;;;;;25.78;31.89;101597.38;6217830;22;46747;-51
2023/05/13 15:03:05;;;;;;;;;9.67;9.33;;;;;25.77;31.83;101590.22;6246486;22;45235;-49
2023/05/13 15:05:31;;;;;;;;;16.00;14.67;;;;;25.68;32.89;101588.44;6219970;22;45370;-49
2023/05/13 15:07:57;;;;;;;;;17.00;17.00;;;;;25.64;32.99;101590.59;6245474;22;68588;-52
2023/05/13 15:10:22;;;;;;;;;14.33;14.33;;;;;25.62;32.72;101578.16;6246929;22;46239;-54
2023/05/13 15:12:48;;;;;;;;;18.00;14.00;;;;;25.59;33.20;101582.91;6245032;22;45360;-49
2023/05/13 15:15:13;;;;;;;;;11.33;11.00;;;;;25.49;32.98;101571.25;6243195;22;58502;-50
2023/05/13 15:17:38;;;;;;;;;16.00;14.00;;;;;25.52;33.21;101576.38;6217646;22;45204;-52
2023/05/13 15:20:04;;;;;;;;;19.00;16.33;;;;;25.45;33.28;101572.59;6245026;22;73229;-49
2023/05/13 15:22:29;;;;;;;;;19.67;17.33;;;;;25.47;33.53;101581.44;6217950;22;45297;-50
2023/05/13 15:24:55;;;;;;;;;20.00;17.67;;;;;25.51;33.59;101573.81;6245470;22;63295;-53
2023/05/13 15:27:20;;;;;;;;;18.00;16.67;;;;;25.53;33.97;101569.94;6245607;22;64354;-50
2023/05/13 15:29:45;;;;;;;;;17.00;16.67;;;;;25.53;34.12;101577.25;6245210;22;45366;-51
2023/05/13 15:32:11;;;;;;;;;19.00;17.33;;;;;25.55;34.12;101564.31;6245299;22;70993;-51
2023/05/13 15:34:36;;;;;;;;;19.00;17.67;;;;;25.60;34.00;101567.44;6245306;22;67817;-50
2023/05/13 15:37:01;;;;;;;;;17.33;16.00;;;;;25.64;33.81;101582.44;6218165;22;45340;-49
2023/05/13 15:39:27;;;;;;;;;18.33;15.33;;;;;25.49;34.44;101582.16;6245651;22;67663;-53
2023/05/13 15:41:52;;;;;;;;;17.33;17.33;;;;;25.43;34.28;101589.09;6218887;22;45731;-50
2023/05/13 15:44:17;;;;;;;;;21.00;19.00;;;;;25.43;34.47;101571.88;6245492;22;66144;-53
2023/05/13 15:46:43;;;;;;;;;19.00;18.00;;;;;25.42;35.34;101573.75;6245343;22;45219;-51
2023/05/13 15:49:08;;;;;;;;;21.00;21.00;;;;;25.40;35.33;101586.66;6245407;22;74611;-52
2023/05/13 15:51:34;;;;;;;;;20.00;20.00;;;;;25.39;35.34;101584.09;6245395;22;67431;-53
2023/05/13 15:53:59;;;;;;;;;24.33;21.67;;;;;25.34;35.51;101570.06;6218638;22;45314;-50
2023/05/13 15:56:25;;;;;;;;;21.67;20.33;;;;;25.34;35.29;101594.56;6191286;22;45456;-52
2023/05/13 15:58:51;;;;;;;;;20.00;18.33;;;;;25.31;34.84;101578.53;6240140;22;66579;-58
2023/05/13 16:01:16;;;;;;;;;20.00;17.67;;;;;25.19;35.31;101581.47;6239630;22;53086;-50
2023/05/13 16:03:41;;;;;;;;;19.00;17.33;;;;;25.12;35.84;101593.13;6243185;22;45514;-50
2023/05/13 16:06:07;;;;;;;;;20.67;20.67;;;;;25.00;36.21;101597.94;6242987;22;52948;-52